createdAt,value
2019-04-29T00:01:19.244Z,9.72
2019-04-29T00:03:52.937Z,9.66
2019-04-29T00:06:26.688Z,9.66
2019-04-29T00:09:00.414Z,9.59
2019-04-29T00:11:34.116Z,9.59
2019-04-29T00:14:07.824Z,9.57
2019-04-29T00:16:41.531Z,9.41
2019-04-29T00:19:15.224Z,9.16
2019-04-29T00:21:48.941Z,9.03
2019-04-29T00:24:22.653Z,9.29
2019-04-29T00:26:56.423Z,9.31
2019-04-29T00:29:30.133Z,9.37
2019-04-29T00:32:03.844Z,9.39
2019-04-29T00:34:37.510Z,9.39
2019-04-29T00:37:11.237Z,9.39
2019-04-29T00:39:45.003Z,9.40
2019-04-29T00:42:18.715Z,9.40
2019-04-29T00:44:52.423Z,9.36
2019-04-29T00:47:26.133Z,9.36
2019-04-29T00:49:59.846Z,9.23
2019-04-29T00:52:33.546Z,9.27
2019-04-29T00:55:07.244Z,9.23
2019-04-29T00:57:40.954Z,9.23
2019-04-29T01:00:14.660Z,9.09
2019-04-29T01:02:48.366Z,8.92
2019-04-29T01:05:22.106Z,9.03
2019-04-29T01:07:55.866Z,9.07
2019-04-29T01:10:29.724Z,9.07
2019-04-29T01:13:03.456Z,8.82
2019-04-29T01:15:37.217Z,8.93
2019-04-29T01:18:10.947Z,8.93
2019-04-29T01:20:44.646Z,8.98
2019-04-29T01:23:18.346Z,8.81
2019-04-29T01:25:52.083Z,8.81
2019-04-29T01:28:25.780Z,8.87
2019-04-29T01:31:04.260Z,8.87
2019-04-29T01:33:38.226Z,8.88
2019-04-29T01:36:11.921Z,8.87
2019-04-29T01:38:48.590Z,8.66
2019-04-29T01:41:21.026Z,8.66
2019-04-29T01:43:54.722Z,8.76
2019-04-29T01:46:28.694Z,8.80
2019-04-29T01:49:02.404Z,8.73
2019-04-29T01:51:36.106Z,8.74
2019-04-29T01:54:09.816Z,8.72
2019-04-29T01:56:43.521Z,8.58
2019-04-29T01:59:17.189Z,8.58
2019-04-29T02:01:50.909Z,8.69
2019-04-29T02:04:24.602Z,8.69
2019-04-29T02:06:58.326Z,8.61
2019-04-29T02:09:32.044Z,8.61
2019-04-29T02:12:05.741Z,8.56
2019-04-29T02:14:39.446Z,8.45
2019-04-29T02:17:13.733Z,8.45
2019-04-29T02:19:47.432Z,8.54
2019-04-29T02:22:21.152Z,8.54
2019-04-29T02:24:54.836Z,8.36
2019-04-29T02:27:28.585Z,8.43
2019-04-29T02:30:03.443Z,8.43
2019-04-29T02:32:37.508Z,8.35
2019-04-29T02:35:11.214Z,8.40
2019-04-29T02:37:44.919Z,8.43
2019-04-29T02:40:18.637Z,8.19
2019-04-29T02:42:52.346Z,8.19
2019-04-29T02:45:26.038Z,8.22
2019-04-29T02:47:59.750Z,8.19
2019-04-29T02:50:33.536Z,8.07
2019-04-29T02:53:07.261Z,7.81
2019-04-29T02:55:41.251Z,7.84
2019-04-29T02:58:14.946Z,7.57
2019-04-29T03:00:48.663Z,7.78
2019-04-29T03:03:22.327Z,7.95
2019-04-29T03:05:56.065Z,7.96
2019-04-29T03:08:29.762Z,7.91
2019-04-29T03:11:03.459Z,7.99
2019-04-29T03:13:37.170Z,7.99
2019-04-29T03:16:10.886Z,8.10
2019-04-29T03:18:44.579Z,8.07
2019-04-29T03:21:18.300Z,8.04
2019-04-29T03:23:52.102Z,8.07
2019-04-29T03:26:25.912Z,8.08
2019-04-29T03:28:59.757Z,8.08
2019-04-29T03:31:39.090Z,8.10
2019-04-29T03:34:08.870Z,7.98
2019-04-29T03:36:42.572Z,7.96
2019-04-29T03:39:16.364Z,7.88
2019-04-29T03:41:50.088Z,7.68
2019-04-29T03:44:23.796Z,7.78
2019-04-29T03:46:57.497Z,7.85
2019-04-29T03:49:31.217Z,7.85
2019-04-29T03:52:04.929Z,7.89
2019-04-29T03:54:38.722Z,7.75
2019-04-29T03:57:12.459Z,7.75
2019-04-29T03:59:46.166Z,7.59
2019-04-29T04:02:19.867Z,7.82
2019-04-29T04:04:53.663Z,7.83
2019-04-29T04:07:27.386Z,7.80
2019-04-29T04:10:01.141Z,7.84
2019-04-29T04:12:34.869Z,7.84
2019-04-29T04:15:08.677Z,7.84
2019-04-29T04:17:42.395Z,7.60
2019-04-29T04:20:16.103Z,7.67
2019-04-29T04:22:49.891Z,7.32
2019-04-29T04:25:23.583Z,7.26
2019-04-29T04:27:57.301Z,7.25
2019-04-29T04:30:30.993Z,7.46
2019-04-29T04:33:04.702Z,7.57
2019-04-29T04:35:38.429Z,7.38
2019-04-29T04:38:13.175Z,7.38
2019-04-29T04:40:46.909Z,7.39
2019-04-29T04:43:20.602Z,7.35
2019-04-29T04:45:54.313Z,7.33
2019-04-29T04:48:28.002Z,6.81
2019-04-29T04:51:01.791Z,6.91
2019-04-29T04:53:35.504Z,7.18
2019-04-29T04:56:09.199Z,7.18
2019-04-29T04:58:42.940Z,7.47
2019-04-29T05:01:16.659Z,7.47
2019-04-29T05:03:50.386Z,7.17
2019-04-29T05:06:24.098Z,7.62
2019-04-29T05:08:57.804Z,7.50
2019-04-29T05:11:31.510Z,7.42
2019-04-29T05:14:05.223Z,7.57
2019-04-29T05:16:38.922Z,7.57
2019-04-29T05:19:13.702Z,7.70
2019-04-29T05:21:47.428Z,7.85
2019-04-29T05:24:21.127Z,7.85
2019-04-29T05:26:54.836Z,7.74
2019-04-29T05:29:28.899Z,7.94
2019-04-29T05:32:03.704Z,8.04
2019-04-29T05:34:41.710Z,8.05
2019-04-29T05:37:13.596Z,8.05
2019-04-29T05:39:47.310Z,8.23
2019-04-29T05:42:21.036Z,8.23
2019-04-29T05:44:54.732Z,8.44
2019-04-29T05:47:28.457Z,8.41
2019-04-29T05:50:02.159Z,8.41
2019-04-29T05:52:39.529Z,8.42
2019-04-29T05:55:13.768Z,8.79
2019-04-29T05:57:46.985Z,8.67
2019-04-29T06:00:23.309Z,8.87
2019-04-29T06:02:56.074Z,8.48
2019-04-29T06:05:29.787Z,8.48
2019-04-29T06:08:03.510Z,8.66
2019-04-29T06:10:37.215Z,8.83
2019-04-29T06:13:10.929Z,9.00
2019-04-29T06:15:44.638Z,8.83
2019-04-29T06:18:22.216Z,9.17
2019-04-29T06:21:07.878Z,9.17
2019-04-29T06:23:29.195Z,8.97
2019-04-29T06:26:02.904Z,8.80
2019-04-29T06:28:36.600Z,8.90
2019-04-29T06:31:10.311Z,8.79
2019-04-29T06:33:44.010Z,8.79
2019-04-29T06:36:18.724Z,9.26
2019-04-29T06:38:53.782Z,9.26
2019-04-29T06:41:27.518Z,9.03
2019-04-29T06:44:06.658Z,9.29
2019-04-29T06:46:36.631Z,9.29
2019-04-29T06:49:10.922Z,9.41
2019-04-29T06:51:44.713Z,9.83
2019-04-29T06:54:18.443Z,10.11
2019-04-29T06:56:52.144Z,10.01
2019-04-29T06:59:25.862Z,10.01
2019-04-29T07:01:59.573Z,10.21
2019-04-29T07:04:38.408Z,10.25
2019-04-29T07:07:08.696Z,10.15
2019-04-29T07:09:42.423Z,10.15
2019-04-29T07:12:16.150Z,10.46
2019-04-29T07:14:49.852Z,10.46
2019-04-29T07:17:23.601Z,10.51
2019-04-29T07:19:57.500Z,10.63
2019-04-29T07:22:32.711Z,10.74
2019-04-29T07:25:06.434Z,10.44
2019-04-29T07:27:43.393Z,10.25
2019-04-29T07:30:15.592Z,10.55
2019-04-29T07:32:49.302Z,10.67
2019-04-29T07:35:23.062Z,11.06
2019-04-29T07:37:56.755Z,11.13
2019-04-29T07:40:30.456Z,11.13
2019-04-29T07:43:07.697Z,10.73
2019-04-29T07:45:44.455Z,11.20
2019-04-29T07:48:15.021Z,11.20
2019-04-29T07:50:48.795Z,10.94
2019-04-29T07:53:35.024Z,10.82
2019-04-29T07:56:01.722Z,11.06
2019-04-29T07:58:33.391Z,11.06
2019-04-29T08:01:07.081Z,10.97
2019-04-29T08:03:40.783Z,10.97
2019-04-29T08:06:14.511Z,11.18
2019-04-29T08:08:55.144Z,11.55
2019-04-29T08:11:23.903Z,11.32
2019-04-29T08:13:57.893Z,11.32
2019-04-29T08:16:31.599Z,11.99
2019-04-29T08:19:05.552Z,11.65
2019-04-29T08:21:39.435Z,11.84
2019-04-29T08:24:15.823Z,11.84
2019-04-29T08:26:49.165Z,12.17
2019-04-29T08:29:22.889Z,11.80
2019-04-29T08:32:00.013Z,11.80
2019-04-29T08:34:32.010Z,11.61
2019-04-29T08:37:05.813Z,11.62
2019-04-29T08:39:39.534Z,11.62
2019-04-29T08:42:14.053Z,12.30
2019-04-29T08:44:47.776Z,12.47
2019-04-29T08:47:22.928Z,12.92
2019-04-29T08:49:56.897Z,12.93
2019-04-29T08:52:30.623Z,12.93
2019-04-29T08:55:04.604Z,12.64
2019-04-29T08:57:38.311Z,12.61
2019-04-29T09:00:12.112Z,12.36
2019-04-29T09:02:47.339Z,12.36
2019-04-29T09:05:21.252Z,12.34
2019-04-29T09:07:57.314Z,12.34
2019-04-29T09:10:32.979Z,12.45
2019-04-29T09:13:05.942Z,12.84
2019-04-29T09:15:39.665Z,13.15
2019-04-29T09:18:13.383Z,13.15
2019-04-29T09:20:47.168Z,12.90
2019-04-29T09:23:20.893Z,12.90
2019-04-29T09:26:02.426Z,12.78
2019-04-29T09:28:30.120Z,12.44
2019-04-29T09:31:04.096Z,13.05
2019-04-29T09:33:37.806Z,13.40
2019-04-29T09:36:13.968Z,13.40
2019-04-29T09:38:46.998Z,13.40
2019-04-29T09:41:20.698Z,13.83
2019-04-29T09:43:54.427Z,13.83
2019-04-29T09:46:29.983Z,13.70
2019-04-29T09:49:03.547Z,13.96
2019-04-29T09:51:37.293Z,14.19
2019-04-29T09:54:14.517Z,14.19
2019-04-29T09:56:46.534Z,13.82
2019-04-29T09:59:20.283Z,14.05
2019-04-29T10:01:55.093Z,13.81
2019-04-29T10:04:29.553Z,14.41
2019-04-29T10:07:03.449Z,14.01
2019-04-29T10:09:37.205Z,14.01
2019-04-29T10:12:11.007Z,13.92
2019-04-29T10:14:44.847Z,13.92
2019-04-29T10:17:18.694Z,13.89
2019-04-29T10:19:53.007Z,13.89
2019-04-29T10:22:26.812Z,13.77
2019-04-29T10:25:00.739Z,13.55
2019-04-29T10:27:34.468Z,13.71
2019-04-29T10:30:08.367Z,13.52
2019-04-29T10:32:42.614Z,13.52
2019-04-29T10:35:17.453Z,13.18
2019-04-29T10:37:51.270Z,13.18
2019-04-29T10:40:25.022Z,13.19
2019-04-29T10:42:58.785Z,13.19
2019-04-29T10:45:32.591Z,12.94
2019-04-29T10:48:06.328Z,13.89
2019-04-29T10:50:40.092Z,13.97
2019-04-29T10:53:15.521Z,13.97
2019-04-29T10:55:49.417Z,13.83
2019-04-29T10:58:29.825Z,13.72
2019-04-29T11:01:18.673Z,13.70
2019-04-29T11:03:55.943Z,13.97
2019-04-29T11:06:31.284Z,13.97
2019-04-29T11:09:04.800Z,14.24
2019-04-29T11:11:38.527Z,14.24
2019-04-29T11:14:12.236Z,13.85
2019-04-29T11:16:46.944Z,14.05
2019-04-29T11:19:20.940Z,14.05
2019-04-29T11:21:54.662Z,14.44
2019-04-29T11:24:28.417Z,14.65
2019-04-29T11:27:11.632Z,14.24
2019-04-29T11:29:37.562Z,14.33
2019-04-29T11:32:11.452Z,14.23
2019-04-29T11:34:48.336Z,14.23
2019-04-29T11:37:23.720Z,14.49
2019-04-29T11:39:57.257Z,14.35
2019-04-29T11:42:31.868Z,13.49
2019-04-29T11:45:06.579Z,13.49
2019-04-29T11:47:40.298Z,13.19
2019-04-29T11:50:14.203Z,13.05
2019-04-29T11:52:48.243Z,12.81
2019-04-29T11:55:22.028Z,12.75
2019-04-29T11:57:55.757Z,13.14
2019-04-29T12:00:29.483Z,13.14
2019-04-29T12:03:03.194Z,12.63
2019-04-29T12:05:40.137Z,12.46
2019-04-29T12:08:17.074Z,12.45
2019-04-29T12:11:05.674Z,12.45
2019-04-29T12:13:27.070Z,12.54
2019-04-29T12:15:58.707Z,12.80
2019-04-29T12:18:34.022Z,12.58
2019-04-29T12:21:07.953Z,12.58
2019-04-29T12:23:41.690Z,12.43
2019-04-29T12:26:15.569Z,12.42
2019-04-29T12:28:49.338Z,12.81
2019-04-29T12:31:26.093Z,12.81
2019-04-29T12:34:00.880Z,12.25
2019-04-29T12:36:36.789Z,12.58
2019-04-29T12:39:10.076Z,12.72
2019-04-29T12:41:48.890Z,12.72
2019-04-29T12:44:19.248Z,12.70
2019-04-29T12:46:52.975Z,12.55
2019-04-29T12:49:26.718Z,12.89
2019-04-29T12:52:00.523Z,12.59
2019-04-29T12:54:34.245Z,12.59
2019-04-29T12:57:07.954Z,12.22
2019-04-29T12:59:41.802Z,12.10
2019-04-29T13:02:15.631Z,12.10
2019-04-29T13:04:50.339Z,12.51
2019-04-29T13:07:24.754Z,12.54
2019-04-29T13:10:02.160Z,12.54
2019-04-29T13:12:33.914Z,12.32
2019-04-29T13:15:12.126Z,12.05
2019-04-29T13:17:43.110Z,12.40
2019-04-29T13:20:16.812Z,12.40
2019-04-29T13:22:50.534Z,12.28
2019-04-29T13:25:26.838Z,12.28
2019-04-29T13:28:04.051Z,12.39
2019-04-29T13:30:35.140Z,12.10
2019-04-29T13:33:16.386Z,12.10
2019-04-29T13:35:49.571Z,12.57
2019-04-29T13:38:19.671Z,12.57
2019-04-29T13:41:11.818Z,12.73
2019-04-29T13:43:28.816Z,12.88
2019-04-29T13:46:05.244Z,13.07
2019-04-29T13:48:54.679Z,13.07
2019-04-29T13:51:13.352Z,12.67
2019-04-29T13:53:47.067Z,12.70
2019-04-29T13:56:35.111Z,12.64
2019-04-29T13:58:58.741Z,12.64
2019-04-29T14:01:33.476Z,12.97
2019-04-29T14:04:07.027Z,13.02
2019-04-29T14:06:40.729Z,12.98
2019-04-29T14:09:14.467Z,12.26
2019-04-29T14:12:01.042Z,12.26
2019-04-29T14:14:24.641Z,12.47
2019-04-29T14:18:53.558Z,12.47
2019-04-29T14:19:40.818Z,12.73
2019-04-29T14:22:21.485Z,12.55
2019-04-29T14:24:47.057Z,12.55
2019-04-29T14:27:25.178Z,12.77
2019-04-29T14:29:56.544Z,12.66
2019-04-29T14:32:36.074Z,12.14
2019-04-29T14:35:07.093Z,12.32
2019-04-29T14:37:54.573Z,12.40
2019-04-29T14:40:17.768Z,11.91
2019-04-29T14:42:57.861Z,11.91
2019-04-29T14:45:29.843Z,11.81
2019-04-29T14:48:04.178Z,11.81
2019-04-29T14:50:37.981Z,12.34
2019-04-29T14:53:11.682Z,12.42
2019-04-29T14:55:45.411Z,12.42
2019-04-29T14:58:19.140Z,12.75
2019-04-29T15:00:52.925Z,12.87
2019-04-29T15:03:27.210Z,12.58
2019-04-29T15:06:06.549Z,12.58
2019-04-29T15:08:40.296Z,12.51
2019-04-29T15:11:14.079Z,11.84
2019-04-29T15:13:48.848Z,12.04
2019-04-29T15:16:22.941Z,12.04
2019-04-29T15:18:56.665Z,12.27
2019-04-29T15:21:32.656Z,12.09
2019-04-29T15:24:05.939Z,12.11
2019-04-29T15:26:39.675Z,12.10
2019-04-29T15:29:13.551Z,12.10
2019-04-29T15:31:48.979Z,12.25
2019-04-29T15:34:22.814Z,12.47
2019-04-29T15:36:56.557Z,12.47
2019-04-29T15:39:30.456Z,12.52
2019-04-29T15:42:06.681Z,12.34
2019-04-29T15:44:39.751Z,12.34
2019-04-29T15:47:13.818Z,12.65
2019-04-29T15:49:47.557Z,12.87
2019-04-29T15:52:25.948Z,12.46
2019-04-29T15:54:56.711Z,12.46
2019-04-29T15:57:30.665Z,12.40
2019-04-29T16:00:21.513Z,12.40
2019-04-29T16:02:44.224Z,12.60
2019-04-29T16:05:18.465Z,12.72
2019-04-29T16:07:55.806Z,12.83
2019-04-29T16:10:27.621Z,12.83
2019-04-29T16:13:01.362Z,12.81
2019-04-29T16:15:35.491Z,12.81
2019-04-29T16:18:10.719Z,13.00
2019-04-29T16:20:44.859Z,12.93
2019-04-29T16:23:19.940Z,12.58
2019-04-29T16:25:54.498Z,12.63
2019-04-29T16:28:31.772Z,12.99
2019-04-29T16:31:05.024Z,12.75
2019-04-29T16:33:39.522Z,12.75
2019-04-29T16:36:14.204Z,13.04
2019-04-29T16:38:51.394Z,12.93
2019-04-29T16:41:25.707Z,13.30
2019-04-29T16:43:59.409Z,13.29
2019-04-29T16:46:37.603Z,12.80
2019-04-29T16:49:08.576Z,12.90
2019-04-29T16:51:42.320Z,12.84
2019-04-29T16:54:20.560Z,12.84
2019-04-29T16:56:51.400Z,12.97
2019-04-29T16:59:25.168Z,13.03
2019-04-29T17:02:00.530Z,13.03
2019-04-29T17:04:34.280Z,13.31
2019-04-29T17:07:13.056Z,13.33
2019-04-29T17:09:43.488Z,13.33
2019-04-29T17:12:17.204Z,13.53
2019-04-29T17:15:04.184Z,13.02
2019-04-29T17:17:29.174Z,13.37
2019-04-29T17:20:01.906Z,13.28
2019-04-29T17:22:42.728Z,13.22
2019-04-29T17:25:11.046Z,13.22
2019-04-29T17:27:45.406Z,12.66
2019-04-29T17:30:19.282Z,12.66
2019-04-29T17:32:55.267Z,13.03
2019-04-29T17:35:29.725Z,13.28
2019-04-29T17:38:03.433Z,13.49
2019-04-29T17:40:37.165Z,13.49
2019-04-29T17:43:10.872Z,13.50
2019-04-29T17:45:52.689Z,13.75
2019-04-29T17:48:26.409Z,13.46
2019-04-29T17:51:00.262Z,12.64
2019-04-29T17:53:35.460Z,12.70
2019-04-29T17:56:09.339Z,12.79
2019-04-29T17:58:43.960Z,12.79
2019-04-29T18:01:18.494Z,12.81
2019-04-29T18:03:52.271Z,12.90
2019-04-29T18:06:28.195Z,12.90
2019-04-29T18:09:01.417Z,12.79
2019-04-29T18:11:48.880Z,12.79
2019-04-29T18:14:10.810Z,13.27
2019-04-29T18:16:47.850Z,13.27
2019-04-29T18:19:20.567Z,13.06
2019-04-29T18:21:56.048Z,13.39
2019-04-29T18:24:35.966Z,13.39
2019-04-29T18:27:05.374Z,13.14
2019-04-29T18:29:41.556Z,13.14
2019-04-29T18:32:15.532Z,12.88
2019-04-29T18:34:49.455Z,12.46
2019-04-29T18:37:24.904Z,12.73
2019-04-29T18:40:02.203Z,12.65
2019-04-29T18:42:34.190Z,12.96
2019-04-29T18:45:07.909Z,12.96
2019-04-29T18:47:41.635Z,12.97
2019-04-29T18:50:15.909Z,13.34
2019-04-29T18:52:49.710Z,13.06
2019-04-29T18:55:23.446Z,13.06
2019-04-29T18:57:58.477Z,12.70
2019-04-29T19:00:32.312Z,12.56
2019-04-29T19:03:06.558Z,12.56
2019-04-29T19:05:40.528Z,12.82
2019-04-29T19:08:19.168Z,12.60
2019-04-29T19:10:51.111Z,12.60
2019-04-29T19:13:26.041Z,12.79
2019-04-29T19:16:09.476Z,12.69
2019-04-29T19:18:35.453Z,12.62
2019-04-29T19:21:09.176Z,12.62
2019-04-29T19:23:42.934Z,12.58
2019-04-29T19:26:18.225Z,12.51
2019-04-29T19:28:52.155Z,12.62
2019-04-29T19:31:25.882Z,12.81
2019-04-29T19:33:59.629Z,13.25
2019-04-29T19:36:35.251Z,12.65
2019-04-29T19:39:08.766Z,12.65
2019-04-29T19:41:42.469Z,12.51
2019-04-29T19:44:16.198Z,12.88
2019-04-29T19:46:49.937Z,12.88
2019-04-29T19:49:25.715Z,12.97
2019-04-29T19:51:59.157Z,12.74
2019-04-29T19:54:32.961Z,12.74
2019-04-29T19:57:07.612Z,12.85
2019-04-29T19:59:50.581Z,12.85
2019-04-29T20:02:17.592Z,13.02
2019-04-29T20:04:53.770Z,13.27
2019-04-29T20:07:28.059Z,13.27
2019-04-29T20:10:05.750Z,13.26
2019-04-29T20:12:38.958Z,13.44
2019-04-29T20:15:13.412Z,13.15
2019-04-29T20:17:49.577Z,13.15
2019-04-29T20:20:25.274Z,13.49
2019-04-29T20:22:59.453Z,13.49
2019-04-29T20:25:38.077Z,13.24
2019-04-29T20:28:13.164Z,13.24
2019-04-29T20:30:45.692Z,13.38
2019-04-29T20:33:19.916Z,13.59
2019-04-29T20:35:55.815Z,13.84
2019-04-29T20:38:29.953Z,13.64
2019-04-29T20:41:07.691Z,13.48
2019-04-29T20:43:40.392Z,13.48
2019-04-29T20:46:15.949Z,13.54
2019-04-29T20:48:50.475Z,13.37
2019-04-29T20:51:32.199Z,13.33
2019-04-29T20:54:00.723Z,13.33
2019-04-29T20:56:35.378Z,13.28
2019-04-29T20:59:12.670Z,13.14
2019-04-29T21:01:45.065Z,13.10
2019-04-29T21:04:31.098Z,13.10
2019-04-29T21:07:01.908Z,13.06
2019-04-29T21:09:30.332Z,12.97
2019-04-29T21:12:04.479Z,13.22
2019-04-29T21:14:38.357Z,13.11
2019-04-29T21:17:26.141Z,13.11
2019-04-29T21:19:48.689Z,13.40
2019-04-29T21:22:23.723Z,13.41
2019-04-29T21:24:57.824Z,13.19
2019-04-29T21:27:31.568Z,13.09
2019-04-29T21:30:05.634Z,13.09
2019-04-29T21:32:39.369Z,12.93
2019-04-29T21:35:17.187Z,13.44
2019-04-29T21:37:48.617Z,13.28
2019-04-29T21:40:24.238Z,12.81
2019-04-29T21:42:57.775Z,12.47
2019-04-29T21:45:31.480Z,12.56
2019-04-29T21:48:05.205Z,12.56
2019-04-29T21:50:38.919Z,12.70
2019-04-29T21:53:14.941Z,12.66
2019-04-29T21:55:48.918Z,13.28
2019-04-29T21:58:22.633Z,13.16
2019-04-29T22:00:59.071Z,13.35
2019-04-29T22:03:32.048Z,13.35
2019-04-29T22:06:05.905Z,13.04
2019-04-29T22:08:39.716Z,13.24
2019-04-29T22:11:13.531Z,13.24
2019-04-29T22:13:47.240Z,13.03
2019-04-29T22:16:20.953Z,13.14
2019-04-29T22:18:55.377Z,13.21
2019-04-29T22:21:29.261Z,13.21
2019-04-29T22:24:02.990Z,13.29
2019-04-29T22:26:36.709Z,13.13
2019-04-29T22:29:10.415Z,13.13
2019-04-29T22:31:45.870Z,13.17
2019-04-29T22:34:19.800Z,13.44
2019-04-29T22:36:58.381Z,13.44
2019-04-29T22:39:30.200Z,13.54
2019-04-29T22:42:04.122Z,13.25
2019-04-29T22:44:37.836Z,13.33
2019-04-29T22:47:11.561Z,13.28
2019-04-29T22:49:45.455Z,13.39
2019-04-29T22:52:20.526Z,13.41
2019-04-29T22:54:57.955Z,13.41
2019-04-29T22:57:31.593Z,13.47
2019-04-29T23:00:08.094Z,13.47
2019-04-29T23:02:41.832Z,12.98
2019-04-29T23:05:15.554Z,12.98
2019-04-29T23:07:52.885Z,13.14
2019-04-29T23:10:27.833Z,12.80
2019-04-29T23:13:00.104Z,12.59
2019-04-29T23:15:35.554Z,12.67
2019-04-29T23:18:09.236Z,12.42
2019-04-29T23:20:42.947Z,12.65
2019-04-29T23:23:16.668Z,12.65
2019-04-29T23:25:50.407Z,12.65
2019-04-29T23:28:26.926Z,12.96
2019-04-29T23:30:59.544Z,12.96
2019-04-29T23:33:33.279Z,13.18
2019-04-29T23:36:09.715Z,13.20
2019-04-29T23:38:43.061Z,12.87
2019-04-29T23:41:17.896Z,12.87
2019-04-29T23:43:51.602Z,12.72
2019-04-29T23:46:25.323Z,13.03
2019-04-29T23:49:03.356Z,13.21
2019-04-29T23:51:37.602Z,12.98
2019-04-29T23:54:09.890Z,12.98
2019-04-29T23:56:46.253Z,12.96
2019-04-29T23:59:19.096Z,12.87
